Flight Track Log - Related Links

Times and Time Zones

All times are in EDT time to prevent confusion due to time zone crossing. See the DAL5547 flight status page for this flight to view local times or setup timezone preferences in your user account.


Time Position Orientation Groundspeed Altitude Reporting Facility
EDT Latitude Longitude Course Direction KTS MPH feet Rate Location/Type
Thu 03:34:22 PM 34.5147 -86.6797 108° East 239 275 5,500  Level Memphis Center
Thu 03:35:22 PM 34.4911 -86.5900 108° East 253 291 8,100 2,400 Climbing Memphis Center
Thu 03:36:22 PM 34.4717 -86.4975 104° East 259 298 10,300 1,648 Climbing Memphis Center
Thu 03:37:44 PM 34.4653 -86.3642 93° East 290 334 12,000 1,225 Climbing Atlanta Center
Thu 03:38:44 PM 34.4839 -86.2514 79° East 311 358 13,200 1,200 Climbing Atlanta Center
Thu 03:39:44 PM 34.4569 -86.1347 106° East 336 387 14,400 1,200 Climbing Atlanta Center
Thu 03:40:44 PM 34.4211 -86.0181 110° East 356 410 15,600 1,200 Climbing Atlanta Center
Thu 03:41:44 PM 34.3875 -85.8964 108° East 364 419 16,800 1,150 Climbing Atlanta Center
Thu 03:42:44 PM 34.3478 -85.7622 110° East 374 430 17,900 1,050 Climbing Atlanta Center
Thu 03:43:44 PM 34.3142 -85.6333 107° East 394 453 18,900 550 Climbing Atlanta Center
Thu 03:44:44 PM 34.2781 -85.5144 110° East 402 463 19,000 50 Climbing Atlanta Center
Thu 03:45:44 PM 34.2400 -85.3781 109° East 425 489 19,000 -100 Level Atlanta Center
Thu 03:46:44 PM 34.1975 -85.2342 110° East 439 505 18,800 -1,450 Descending Atlanta Center
Thu 03:47:44 PM 34.1467 -85.1006 115° Southeast 444 511 16,100 -2,400 Descending Atlanta Center
Thu 03:48:44 PM 34.0703 -84.9992 132° Southeast 424 488 14,000 -1,700 Descending Atlanta Center
Thu 03:49:44 PM 33.9978 -84.9108 135° Southeast 386 444 12,700 -1,000 Descending Atlanta Center
Thu 03:50:44 PM 33.9275 -84.8200 133° Southeast 368 423 12,000 -350 Descending Atlanta Center
Thu 03:51:44 PM 33.8550 -84.7317 135° Southeast 368 423 12,000  Level Atlanta Center
Thu 03:52:44 PM 33.7803 -84.6461 136° Southeast 368 423 12,000 -50 Level Atlanta Center
Thu 03:53:44 PM 33.7347 -84.5608 123° Southeast 296 341 11,900 -650 Descending Atlanta Center
Thu 03:54:44 PM 33.7308 -84.4733 93° East 268 308 10,700 -1,289 Descending Atlanta Center
Thu 03:55:45 PM 33.7311 -84.3886 90° East 256 295 9,300 -1,652 Descending Atlanta Center
Thu 03:57:02 PM 33.7333 -84.2667 89° East 237 273 6,900 -1,826 Descending Atlanta TRACON
Thu 03:58:03 PM 33.7333 -84.2000 90° East 226 260 5,100 -1,333 Descending Atlanta TRACON
Thu 03:59:08 PM 33.7000 -84.1500 129° Southeast 236 272 4,100 -500 Descending Atlanta TRACON
Thu 04:00:03 PM 33.6500 -84.2000 220° Southwest 213 245 4,100 -365 Level Atlanta TRACON
Thu 04:01:03 PM 33.6500 -84.2667 270° West 190 219 3,400 -850 Descending Atlanta TRACON
Thu 04:02:03 PM 33.6500 -84.3167 270° West 187 215 2,400 -900 Descending Atlanta TRACON
Thu 04:03:03 PM 33.6500 -84.3833 270° West 151 174 1,600 -800 Descending Atlanta TRACON
Thu 04:05:00 PM 33.6333 -84.4167 North  Level FlightAware Approximate

Login

Don't have an account? Register now (free) for customized features, flight alerts, and more!